createdAt,value
2018-11-27T00:01:00.045Z,21.82
2018-11-27T00:03:26.018Z,21.80
2018-11-27T00:05:52.003Z,21.81
2018-11-27T00:08:18.019Z,21.81
2018-11-27T00:10:44.021Z,21.83
2018-11-27T00:13:10.013Z,21.81
2018-11-27T00:15:36.110Z,21.82
2018-11-27T00:18:02.116Z,21.83
2018-11-27T00:20:28.129Z,21.80
2018-11-27T00:22:54.123Z,21.82
2018-11-27T00:25:20.161Z,21.80
2018-11-27T00:27:46.152Z,21.78
2018-11-27T00:30:12.143Z,21.79
2018-11-27T00:32:38.153Z,21.79
2018-11-27T00:35:04.159Z,21.78
2018-11-27T00:37:30.160Z,21.79
2018-11-27T00:39:56.162Z,21.77
2018-11-27T00:42:22.171Z,21.78
2018-11-27T00:44:48.183Z,21.80
2018-11-27T00:47:14.183Z,21.80
2018-11-27T00:49:40.183Z,21.78
2018-11-27T00:52:06.211Z,21.77
2018-11-27T00:54:32.207Z,21.77
2018-11-27T00:56:58.205Z,21.77
2018-11-27T00:59:24.194Z,21.76
2018-11-27T01:01:50.207Z,21.76
2018-11-27T01:04:16.228Z,21.79
2018-11-27T01:06:42.268Z,21.77
2018-11-27T01:09:08.288Z,21.76
2018-11-27T01:11:34.272Z,21.76
2018-11-27T01:14:00.292Z,21.79
2018-11-27T01:16:26.281Z,21.78
2018-11-27T01:18:52.289Z,21.78
2018-11-27T01:21:18.304Z,21.79
2018-11-27T01:23:44.317Z,21.77
2018-11-27T01:26:10.306Z,21.81
2018-11-27T01:28:36.318Z,21.78
2018-11-27T01:31:02.309Z,21.79
2018-11-27T01:33:28.302Z,21.77
2018-11-27T01:35:54.311Z,21.77
2018-11-27T01:38:20.291Z,21.77
2018-11-27T01:40:46.354Z,21.78
2018-11-27T01:43:12.367Z,21.77
2018-11-27T01:45:38.343Z,21.76
2018-11-27T01:48:04.355Z,21.78
2018-11-27T01:50:30.343Z,21.78
2018-11-27T01:52:56.370Z,21.76
2018-11-27T01:55:22.404Z,21.77
2018-11-27T01:57:48.532Z,21.77
2018-11-27T02:00:14.518Z,21.75
2018-11-27T02:02:40.501Z,21.75
2018-11-27T02:05:06.517Z,21.76
2018-11-27T02:07:32.500Z,21.78
2018-11-27T02:09:58.543Z,21.74
2018-11-27T02:12:24.531Z,21.76
2018-11-27T02:14:50.521Z,21.76
2018-11-27T02:17:16.510Z,21.76
2018-11-27T02:19:42.514Z,21.76
2018-11-27T02:22:08.562Z,21.74
2018-11-27T02:24:34.536Z,21.75
2018-11-27T02:27:00.515Z,21.77
2018-11-27T02:29:26.492Z,21.74
2018-11-27T02:31:52.509Z,21.74
2018-11-27T02:34:18.526Z,21.76
2018-11-27T02:36:44.604Z,21.76
2018-11-27T02:39:10.573Z,21.76
2018-11-27T02:41:36.582Z,21.75
2018-11-27T02:44:02.597Z,21.75
2018-11-27T02:46:28.594Z,21.75
2018-11-27T02:48:54.588Z,21.74
2018-11-27T02:51:20.621Z,21.74
2018-11-27T02:53:46.620Z,21.74
2018-11-27T02:56:12.604Z,21.75
2018-11-27T02:58:38.593Z,21.75
2018-11-27T03:01:04.612Z,21.73
2018-11-27T03:03:30.614Z,21.74
2018-11-27T03:05:56.607Z,21.74
2018-11-27T03:08:22.709Z,21.72
2018-11-27T03:10:48.571Z,21.74
2018-11-27T03:13:14.597Z,21.75
2018-11-27T03:15:40.638Z,21.74
2018-11-27T03:18:06.623Z,21.73
2018-11-27T03:20:32.617Z,21.74
2018-11-27T03:22:58.638Z,21.75
2018-11-27T03:25:24.614Z,21.74
2018-11-27T03:27:50.632Z,21.75
2018-11-27T03:30:16.658Z,21.74
2018-11-27T03:32:42.628Z,21.74
2018-11-27T03:35:08.649Z,21.73
2018-11-27T03:37:34.685Z,21.73
2018-11-27T03:40:00.712Z,21.74
2018-11-27T03:42:26.688Z,21.72
2018-11-27T03:44:52.708Z,21.70
2018-11-27T03:47:18.695Z,21.72
2018-11-27T03:49:44.708Z,21.72
2018-11-27T03:52:10.734Z,21.73
2018-11-27T03:54:36.750Z,21.73
2018-11-27T03:57:02.793Z,21.73
2018-11-27T03:59:28.806Z,21.73
2018-11-27T04:01:54.791Z,21.73
2018-11-27T04:04:20.781Z,21.73
2018-11-27T04:06:46.791Z,21.72
2018-11-27T04:09:12.787Z,21.71
2018-11-27T04:11:38.785Z,21.70
2018-11-27T04:14:04.766Z,21.71
2018-11-27T04:16:30.767Z,21.73
2018-11-27T04:18:56.832Z,21.74
2018-11-27T04:21:22.828Z,21.73
2018-11-27T04:23:48.820Z,21.72
2018-11-27T04:26:14.847Z,21.72
2018-11-27T04:28:40.851Z,21.73
2018-11-27T04:31:06.870Z,21.74
2018-11-27T04:33:32.867Z,21.74
2018-11-27T04:35:58.881Z,21.72
2018-11-27T04:38:24.889Z,21.74
2018-11-27T04:40:50.888Z,21.74
2018-11-27T04:43:16.910Z,21.73
2018-11-27T04:45:42.912Z,21.73
2018-11-27T04:48:08.902Z,21.72
2018-11-27T04:50:34.904Z,21.72
2018-11-27T04:53:00.918Z,21.72
2018-11-27T04:55:26.918Z,21.75
2018-11-27T04:57:52.906Z,21.73
2018-11-27T05:00:18.931Z,21.72
2018-11-27T05:02:44.934Z,21.72
2018-11-27T05:05:10.959Z,21.71
2018-11-27T05:07:36.973Z,21.68
2018-11-27T05:10:02.972Z,21.70
2018-11-27T05:12:28.958Z,21.71
2018-11-27T05:14:54.979Z,21.72
2018-11-27T05:17:21.015Z,21.72
2018-11-27T05:19:46.993Z,21.71
2018-11-27T05:22:13.018Z,21.72
2018-11-27T05:24:38.993Z,21.69
2018-11-27T05:27:04.984Z,21.72
2018-11-27T05:29:30.978Z,21.71
2018-11-27T05:31:56.977Z,21.71
2018-11-27T05:34:22.956Z,21.70
2018-11-27T05:36:48.983Z,21.68
2018-11-27T05:39:15.002Z,21.71
2018-11-27T05:41:41.056Z,21.73
2018-11-27T05:44:07.083Z,21.71
2018-11-27T05:46:33.109Z,21.70
2018-11-27T05:48:59.136Z,21.70
2018-11-27T05:51:25.128Z,21.70
2018-11-27T05:53:51.171Z,21.68
2018-11-27T05:56:17.161Z,21.67
2018-11-27T05:58:43.173Z,21.69
2018-11-27T06:01:09.155Z,21.71
2018-11-27T06:03:35.161Z,21.72
2018-11-27T06:06:01.157Z,21.70
2018-11-27T06:08:27.162Z,21.72
2018-11-27T06:10:53.157Z,21.72
2018-11-27T06:13:19.136Z,21.70
2018-11-27T06:15:45.168Z,21.70
2018-11-27T06:18:11.193Z,21.71
2018-11-27T06:20:37.175Z,21.72
2018-11-27T06:23:03.242Z,21.75
2018-11-27T06:25:29.257Z,21.74
2018-11-27T06:27:55.233Z,21.75
2018-11-27T06:30:21.247Z,21.76
2018-11-27T06:32:47.320Z,21.76
2018-11-27T06:35:13.339Z,21.79
2018-11-27T06:37:39.354Z,21.82
2018-11-27T06:40:05.378Z,21.82
2018-11-27T06:42:31.361Z,21.79
2018-11-27T06:44:57.421Z,21.76
2018-11-27T06:47:23.457Z,21.75
2018-11-27T06:49:49.446Z,21.79
2018-11-27T06:52:15.424Z,21.85
2018-11-27T06:54:41.408Z,21.85
2018-11-27T06:57:07.489Z,21.89
2018-11-27T06:59:33.486Z,21.90
2018-11-27T07:01:59.473Z,21.88
2018-11-27T07:04:25.542Z,21.90
2018-11-27T07:06:51.530Z,21.86
2018-11-27T07:09:17.549Z,21.85
2018-11-27T07:11:43.563Z,21.85
2018-11-27T07:14:09.587Z,21.83
2018-11-27T07:16:35.561Z,21.82
2018-11-27T07:19:01.572Z,21.83
2018-11-27T07:21:27.608Z,21.83
2018-11-27T07:23:53.643Z,21.81
2018-11-27T07:26:19.663Z,21.81
2018-11-27T07:28:45.673Z,21.79
2018-11-27T07:31:11.718Z,21.80
2018-11-27T07:33:37.717Z,21.79
2018-11-27T07:36:03.759Z,21.79
2018-11-27T07:38:29.744Z,21.78
2018-11-27T07:40:55.793Z,21.79
2018-11-27T07:43:21.809Z,21.79
2018-11-27T07:45:47.879Z,21.80
2018-11-27T07:48:13.882Z,21.81
2018-11-27T07:50:39.952Z,21.78
2018-11-27T07:53:05.960Z,21.79
2018-11-27T07:55:31.959Z,21.79
2018-11-27T07:57:57.984Z,21.77
2018-11-27T08:00:24.154Z,21.81
2018-11-27T08:02:50.175Z,21.79
2018-11-27T08:05:16.192Z,21.77
2018-11-27T08:07:42.245Z,21.78
2018-11-27T08:10:08.286Z,21.79
2018-11-27T08:12:34.262Z,21.79
2018-11-27T08:15:00.249Z,21.78
2018-11-27T08:17:26.269Z,21.81
2018-11-27T08:19:52.282Z,21.79
2018-11-27T08:22:18.381Z,21.83
2018-11-27T08:24:44.433Z,21.86
2018-11-27T08:27:10.433Z,21.86
2018-11-27T08:29:36.421Z,21.89
2018-11-27T08:32:02.483Z,21.89
2018-11-27T08:34:28.490Z,21.89
2018-11-27T08:36:54.546Z,21.89
2018-11-27T08:39:20.548Z,21.87
2018-11-27T08:41:46.553Z,21.83
2018-11-27T08:44:12.595Z,21.84
2018-11-27T08:46:38.604Z,21.84
2018-11-27T08:49:04.605Z,21.81
2018-11-27T08:51:30.617Z,21.83
2018-11-27T08:53:56.662Z,21.81
2018-11-27T08:56:22.675Z,21.80
2018-11-27T08:58:48.698Z,21.81
2018-11-27T09:01:14.706Z,21.82
2018-11-27T09:03:40.729Z,21.80
2018-11-27T09:06:06.757Z,21.79
2018-11-27T09:08:32.773Z,21.78
2018-11-27T09:10:58.845Z,21.79
2018-11-27T09:13:24.852Z,21.78
2018-11-27T09:15:50.855Z,21.78
2018-11-27T09:18:16.831Z,21.76
2018-11-27T09:20:42.846Z,21.76
2018-11-27T09:23:08.874Z,21.76
2018-11-27T09:25:34.891Z,21.74
2018-11-27T09:28:00.909Z,21.76
2018-11-27T09:30:26.959Z,21.75
2018-11-27T09:32:52.956Z,21.75
2018-11-27T09:35:19.032Z,21.74
2018-11-27T09:37:45.038Z,21.73
2018-11-27T09:40:11.037Z,21.74
2018-11-27T09:42:37.052Z,21.74
2018-11-27T09:45:03.047Z,21.74
2018-11-27T09:47:29.066Z,21.73
2018-11-27T09:49:55.078Z,21.75
2018-11-27T09:52:21.140Z,21.74
2018-11-27T09:54:47.120Z,21.74
2018-11-27T09:57:13.142Z,21.74
2018-11-27T09:59:39.158Z,21.74
2018-11-27T10:02:05.141Z,21.74
2018-11-27T10:04:31.252Z,21.74
2018-11-27T10:06:57.271Z,21.73
2018-11-27T10:09:23.338Z,21.74
2018-11-27T10:11:49.287Z,21.74
2018-11-27T10:14:15.277Z,21.75
2018-11-27T10:16:41.321Z,21.76
2018-11-27T10:19:07.311Z,21.77
2018-11-27T10:21:33.378Z,21.79
2018-11-27T10:23:59.411Z,21.81
2018-11-27T10:26:25.422Z,21.80
2018-11-27T10:28:51.447Z,21.82
2018-11-27T10:31:17.564Z,21.85
2018-11-27T10:33:43.586Z,21.85
2018-11-27T10:36:09.585Z,21.92
2018-11-27T10:38:35.589Z,21.98
2018-11-27T10:41:01.574Z,21.91
2018-11-27T10:43:27.557Z,21.87
2018-11-27T10:45:53.549Z,21.90
2018-11-27T10:48:19.695Z,21.88
2018-11-27T10:50:45.669Z,21.89
2018-11-27T10:53:11.723Z,21.88
2018-11-27T10:55:37.717Z,21.91
2018-11-27T10:58:03.700Z,21.95
2018-11-27T11:00:29.722Z,21.91
2018-11-27T11:02:55.926Z,21.89
2018-11-27T11:05:21.913Z,21.89
2018-11-27T11:07:47.901Z,21.87
2018-11-27T11:10:13.952Z,21.89
2018-11-27T11:12:39.928Z,21.88
2018-11-27T11:15:05.942Z,21.89
2018-11-27T11:17:32.044Z,21.87
2018-11-27T11:19:58.112Z,21.87
2018-11-27T11:22:24.110Z,21.86
2018-11-27T11:24:50.118Z,21.85
2018-11-27T11:27:16.103Z,21.85
2018-11-27T11:29:42.121Z,21.86
2018-11-27T11:32:08.138Z,21.85
2018-11-27T11:34:34.187Z,21.84
2018-11-27T11:37:00.191Z,21.83
2018-11-27T11:39:26.250Z,21.83
2018-11-27T11:41:52.278Z,21.83
2018-11-27T11:44:18.290Z,21.81
2018-11-27T11:46:44.280Z,21.82
2018-11-27T11:49:10.281Z,21.82
2018-11-27T11:51:36.279Z,21.81
2018-11-27T11:54:02.298Z,21.81
2018-11-27T11:56:28.321Z,21.81
2018-11-27T11:58:54.391Z,21.80
2018-11-27T12:01:20.405Z,21.81
2018-11-27T12:03:46.429Z,21.80
2018-11-27T12:06:12.426Z,21.79
2018-11-27T12:08:38.414Z,21.79
2018-11-27T12:11:04.443Z,21.78
2018-11-27T12:13:30.402Z,21.78
2018-11-27T12:15:56.390Z,21.78
2018-11-27T12:18:22.392Z,21.77
2018-11-27T12:20:48.387Z,21.77
2018-11-27T12:23:14.390Z,21.79
2018-11-27T12:25:40.370Z,21.78
2018-11-27T12:28:06.358Z,21.78
2018-11-27T12:30:32.371Z,21.79
2018-11-27T12:32:58.393Z,21.77
2018-11-27T12:35:24.395Z,21.77
2018-11-27T12:37:50.385Z,21.78
2018-11-27T12:40:16.370Z,21.77
2018-11-27T12:42:42.375Z,21.77
2018-11-27T12:45:08.379Z,21.78
2018-11-27T12:47:34.353Z,21.76
2018-11-27T12:50:00.380Z,21.78
2018-11-27T12:52:26.360Z,21.77
2018-11-27T12:54:52.349Z,21.77
2018-11-27T12:57:18.366Z,21.77
2018-11-27T12:59:44.392Z,21.76
2018-11-27T13:02:10.400Z,21.76
2018-11-27T13:04:36.441Z,21.75
2018-11-27T13:07:02.510Z,21.76
2018-11-27T13:09:28.503Z,21.76
2018-11-27T13:11:54.498Z,21.75
2018-11-27T13:14:20.505Z,21.75
2018-11-27T13:16:46.507Z,21.76
2018-11-27T13:19:12.505Z,21.75
2018-11-27T13:21:38.504Z,21.75
2018-11-27T13:24:04.549Z,21.74
2018-11-27T13:26:30.562Z,21.72
2018-11-27T13:28:56.555Z,21.74
2018-11-27T13:31:22.576Z,21.74
2018-11-27T13:33:48.587Z,21.74
2018-11-27T13:36:14.613Z,21.74
2018-11-27T13:38:40.611Z,21.74
2018-11-27T13:41:06.603Z,21.73
2018-11-27T13:43:32.587Z,21.73
2018-11-27T13:45:58.599Z,21.73
2018-11-27T13:48:24.633Z,21.72
2018-11-27T13:50:50.757Z,21.72
2018-11-27T13:53:16.758Z,21.73
2018-11-27T13:55:42.762Z,21.72
2018-11-27T13:58:08.760Z,21.72
2018-11-27T14:00:34.789Z,21.72
2018-11-27T14:03:00.822Z,21.72
2018-11-27T14:05:26.817Z,21.72
2018-11-27T14:07:52.820Z,21.72
2018-11-27T14:10:18.843Z,21.72
2018-11-27T14:12:44.832Z,21.72
2018-11-27T14:15:10.850Z,21.72
2018-11-27T14:17:36.874Z,21.72
2018-11-27T14:20:02.873Z,21.71
2018-11-27T14:22:28.864Z,21.71
2018-11-27T14:24:54.887Z,21.71
2018-11-27T14:27:20.907Z,21.72
2018-11-27T14:29:46.900Z,21.70
2018-11-27T14:32:12.957Z,21.70
2018-11-27T14:34:38.998Z,21.71
2018-11-27T14:37:04.976Z,21.71
2018-11-27T14:39:31.050Z,21.69
2018-11-27T14:41:57.047Z,21.71
2018-11-27T14:44:23.082Z,21.71
2018-11-27T14:46:49.082Z,21.73
2018-11-27T14:49:15.120Z,21.76
2018-11-27T14:51:41.106Z,21.77
2018-11-27T14:54:07.138Z,21.81
2018-11-27T14:56:33.112Z,21.83
2018-11-27T14:58:59.131Z,21.83
2018-11-27T15:01:25.154Z,21.86
2018-11-27T15:03:51.137Z,21.87
2018-11-27T15:06:17.142Z,21.86
2018-11-27T15:08:43.218Z,21.88
2018-11-27T15:11:12.668Z,21.87
2018-11-27T15:13:35.299Z,21.88
2018-11-27T15:16:01.348Z,21.89
2018-11-27T15:18:27.360Z,21.89
2018-11-27T15:20:54.664Z,21.90
2018-11-27T15:23:26.116Z,21.89
2018-11-27T15:25:52.094Z,21.79
2018-11-27T15:28:18.105Z,21.87
2018-11-27T15:30:44.115Z,21.86
2018-11-27T15:33:10.150Z,21.86
2018-11-27T15:35:36.535Z,21.86
2018-11-27T15:38:02.566Z,21.85
2018-11-27T15:40:29.520Z,21.86
2018-11-27T15:42:55.594Z,21.85
2018-11-27T15:45:22.597Z,21.85
2018-11-27T15:47:48.769Z,21.86
2018-11-27T15:50:14.756Z,21.85
2018-11-27T15:52:40.801Z,21.83
2018-11-27T15:55:07.360Z,21.84
2018-11-27T15:57:33.372Z,21.83
2018-11-27T15:59:59.397Z,21.85
2018-11-27T16:02:25.412Z,21.83
2018-11-27T16:04:51.537Z,21.86
2018-11-27T16:07:17.574Z,21.88
2018-11-27T16:09:43.582Z,21.88
2018-11-27T16:12:09.647Z,21.88
2018-11-27T16:14:35.623Z,21.91
2018-11-27T16:17:01.650Z,21.96
2018-11-27T16:19:27.668Z,21.95
2018-11-27T16:21:53.684Z,21.92
2018-11-27T16:24:19.679Z,22.07
2018-11-27T16:26:45.771Z,22.09
2018-11-27T16:29:11.757Z,22.07
2018-11-27T16:31:37.809Z,22.05
2018-11-27T16:34:04.146Z,22.04
2018-11-27T16:36:30.164Z,22.05
2018-11-27T16:38:56.214Z,22.09
2018-11-27T16:41:22.259Z,22.06
2018-11-27T16:43:48.246Z,22.04
2018-11-27T16:46:14.270Z,22.10
2018-11-27T16:48:40.276Z,22.10
2018-11-27T16:51:06.398Z,22.08
2018-11-27T16:53:32.425Z,22.08
2018-11-27T16:55:58.438Z,22.09
2018-11-27T16:58:24.721Z,22.08
2018-11-27T17:00:51.670Z,22.08
2018-11-27T17:03:17.783Z,22.11
2018-11-27T17:05:44.378Z,22.13
2018-11-27T17:08:12.989Z,22.10
2018-11-27T17:10:38.993Z,22.13
2018-11-27T17:13:04.987Z,22.11
2018-11-27T17:15:31.023Z,22.14
2018-11-27T17:17:57.021Z,22.12
2018-11-27T17:20:23.121Z,22.14
2018-11-27T17:22:49.067Z,22.15
2018-11-27T17:25:15.113Z,22.13
2018-11-27T17:27:41.943Z,22.13
2018-11-27T17:30:07.122Z,22.13
2018-11-27T17:32:33.100Z,22.14
2018-11-27T17:34:59.398Z,22.15
2018-11-27T17:37:25.408Z,22.18
2018-11-27T17:39:51.405Z,22.14
2018-11-27T17:42:17.596Z,22.12
2018-11-27T17:44:44.561Z,22.11
2018-11-27T17:47:10.790Z,22.12
2018-11-27T17:49:37.646Z,22.11
2018-11-27T17:52:03.729Z,22.12
2018-11-27T17:54:29.733Z,22.12
2018-11-27T17:56:56.217Z,22.12
2018-11-27T17:59:22.214Z,22.15
2018-11-27T18:01:49.087Z,22.10
2018-11-27T18:04:15.135Z,22.13
2018-11-27T18:06:41.155Z,22.16
2018-11-27T18:09:10.846Z,22.15
2018-11-27T18:11:37.692Z,22.13
2018-11-27T18:14:03.714Z,22.12
2018-11-27T18:16:31.187Z,22.11
2018-11-27T18:18:57.221Z,22.13
2018-11-27T18:21:25.393Z,22.15
2018-11-27T18:23:51.623Z,22.14
2018-11-27T18:26:17.723Z,22.14
2018-11-27T18:28:43.744Z,22.14
2018-11-27T18:31:09.744Z,22.13
2018-11-27T18:33:36.832Z,22.14
2018-11-27T18:36:02.829Z,22.14
2018-11-27T18:38:28.870Z,22.14
2018-11-27T18:40:54.860Z,22.16
2018-11-27T18:43:20.892Z,22.20
2018-11-27T18:45:47.721Z,22.25
2018-11-27T18:48:13.812Z,22.26
2018-11-27T18:50:40.588Z,22.27
2018-11-27T18:53:06.663Z,22.24
2018-11-27T18:55:36.240Z,22.24
2018-11-27T18:58:02.275Z,22.23
2018-11-27T19:00:28.284Z,22.26
2018-11-27T19:02:54.322Z,22.23
2018-11-27T19:05:20.419Z,22.27
2018-11-27T19:07:46.388Z,22.27
2018-11-27T19:10:12.464Z,22.30
2018-11-27T19:12:38.534Z,22.29
2018-11-27T19:15:04.601Z,22.29
2018-11-27T19:17:30.631Z,22.28
2018-11-27T19:19:56.723Z,22.29
2018-11-27T19:22:22.745Z,22.29
2018-11-27T19:24:48.772Z,22.28
2018-11-27T19:27:15.821Z,22.27
2018-11-27T19:29:42.223Z,22.29
2018-11-27T19:32:08.235Z,22.27
2018-11-27T19:34:34.268Z,22.28
2018-11-27T19:37:00.303Z,22.23
2018-11-27T19:39:26.631Z,22.19
2018-11-27T19:41:52.668Z,22.19
2018-11-27T19:44:18.667Z,22.19
2018-11-27T19:46:44.700Z,22.18
2018-11-27T19:49:10.816Z,22.18
2018-11-27T19:51:36.879Z,22.17
2018-11-27T19:54:02.902Z,22.17
2018-11-27T19:56:28.982Z,22.16
2018-11-27T19:58:54.984Z,22.15
2018-11-27T20:01:21.048Z,22.15
2018-11-27T20:03:47.072Z,22.15
2018-11-27T20:06:13.074Z,22.14
2018-11-27T20:08:39.118Z,22.15
2018-11-27T20:11:05.134Z,22.15
2018-11-27T20:13:31.176Z,22.14
2018-11-27T20:15:57.180Z,22.14
2018-11-27T20:18:23.200Z,22.12
2018-11-27T20:20:49.221Z,22.11
2018-11-27T20:23:15.291Z,22.12
2018-11-27T20:25:41.276Z,22.11
2018-11-27T20:28:07.334Z,22.12
2018-11-27T20:30:33.361Z,22.13
2018-11-27T20:32:59.360Z,22.10
2018-11-27T20:35:28.443Z,22.11
2018-11-27T20:37:54.485Z,22.09
2018-11-27T20:40:20.587Z,22.10
2018-11-27T20:42:46.602Z,22.10
2018-11-27T20:45:12.647Z,22.09
2018-11-27T20:47:38.726Z,22.10
2018-11-27T20:50:04.714Z,22.09
2018-11-27T20:52:30.849Z,22.10
2018-11-27T20:54:56.874Z,22.09
2018-11-27T20:57:22.929Z,22.09
2018-11-27T20:59:48.998Z,22.10
2018-11-27T21:02:15.011Z,22.07
2018-11-27T21:04:40.997Z,22.09
2018-11-27T21:07:07.044Z,22.09
2018-11-27T21:09:33.094Z,22.09
2018-11-27T21:11:59.235Z,22.08
2018-11-27T21:14:25.414Z,22.08
2018-11-27T21:16:51.415Z,22.08
2018-11-27T21:19:17.396Z,22.08
2018-11-27T21:21:43.384Z,22.08
2018-11-27T21:24:09.396Z,22.07
2018-11-27T21:26:35.681Z,22.07
2018-11-27T21:29:01.433Z,22.05
2018-11-27T21:31:27.423Z,22.04
2018-11-27T21:33:53.441Z,22.02
2018-11-27T21:36:19.454Z,22.01
2018-11-27T21:38:45.476Z,22.01
2018-11-27T21:41:11.493Z,22.01
2018-11-27T21:43:37.498Z,22.00
2018-11-27T21:46:03.474Z,21.99
2018-11-27T21:48:29.500Z,21.99
2018-11-27T21:50:55.503Z,21.98
2018-11-27T21:53:21.479Z,21.98
2018-11-27T21:55:47.472Z,21.98
2018-11-27T21:58:13.489Z,21.98
2018-11-27T22:00:39.469Z,21.97
2018-11-27T22:03:05.465Z,21.96
2018-11-27T22:05:31.481Z,21.95
2018-11-27T22:07:57.482Z,21.93
2018-11-27T22:10:23.479Z,21.94
2018-11-27T22:12:49.461Z,21.95
2018-11-27T22:15:15.467Z,21.94
2018-11-27T22:17:41.474Z,21.93
2018-11-27T22:20:07.467Z,21.93
2018-11-27T22:22:33.490Z,21.92
2018-11-27T22:24:59.467Z,21.92
2018-11-27T22:27:25.528Z,21.92
2018-11-27T22:29:51.533Z,21.92
2018-11-27T22:32:17.545Z,21.91
2018-11-27T22:34:43.523Z,21.91
2018-11-27T22:37:09.528Z,21.91
2018-11-27T22:39:35.547Z,21.91
2018-11-27T22:42:01.565Z,21.90
2018-11-27T22:44:27.572Z,21.90
2018-11-27T22:46:53.567Z,21.90
2018-11-27T22:49:19.538Z,21.90
2018-11-27T22:51:45.559Z,21.88
2018-11-27T22:54:11.571Z,21.88
2018-11-27T22:56:37.586Z,21.88
2018-11-27T22:59:03.597Z,21.87
2018-11-27T23:01:29.611Z,21.87
2018-11-27T23:03:55.595Z,21.86
2018-11-27T23:06:21.603Z,21.87
2018-11-27T23:08:47.603Z,21.86
2018-11-27T23:11:13.598Z,21.87
2018-11-27T23:13:39.594Z,21.85
2018-11-27T23:16:05.600Z,21.86
2018-11-27T23:18:31.607Z,21.84
2018-11-27T23:20:57.629Z,21.84
2018-11-27T23:23:23.631Z,21.84
2018-11-27T23:25:49.610Z,21.85
2018-11-27T23:28:15.607Z,21.84
2018-11-27T23:30:41.603Z,21.83
2018-11-27T23:33:07.606Z,21.82
2018-11-27T23:35:33.625Z,21.82
2018-11-27T23:37:59.642Z,21.82
2018-11-27T23:40:25.642Z,21.82
2018-11-27T23:42:51.631Z,21.81
2018-11-27T23:45:17.632Z,21.81
2018-11-27T23:47:43.662Z,21.81
2018-11-27T23:50:09.657Z,21.80
2018-11-27T23:52:35.671Z,21.80
2018-11-27T23:55:01.649Z,21.81
2018-11-27T23:57:27.656Z,21.79
2018-11-27T23:59:53.683Z,21.81
